sensor_id;sensor_type;location;lat;lon;timestamp;P1;durP1;ratioP1;P2;durP2;ratioP2
83362;SDS011;73275;50.882;5.984;2023-12-20T00:11:58;0.65;;;0.65;;
83362;SDS011;73275;50.882;5.984;2023-12-20T00:25:28;0.33;;;0.33;;
83362;SDS011;73275;50.882;5.984;2023-12-20T00:32:22;0.25;;;0.25;;
83362;SDS011;73275;50.882;5.984;2023-12-20T00:35:42;0.20;;;0.20;;
83362;SDS011;73275;50.882;5.984;2023-12-20T00:41:30;0.30;;;0.30;;
83362;SDS011;73275;50.882;5.984;2023-12-20T00:44:21;0.20;;;0.20;;
83362;SDS011;73275;50.882;5.984;2023-12-20T00:46:52;0.40;;;0.40;;
83362;SDS011;73275;50.882;5.984;2023-12-20T00:49:21;0.50;;;0.50;;
83362;SDS011;73275;50.882;5.984;2023-12-20T00:51:55;0.30;;;0.30;;
83362;SDS011;73275;50.882;5.984;2023-12-20T00:54:21;1.60;;;1.50;;
83362;SDS011;73275;50.882;5.984;2023-12-20T00:56:46;0.30;;;0.30;;
83362;SDS011;73275;50.882;5.984;2023-12-20T00:59:12;0.30;;;0.30;;
83362;SDS011;73275;50.882;5.984;2023-12-20T01:01:37;0.30;;;0.30;;
83362;SDS011;73275;50.882;5.984;2023-12-20T01:04:03;0.40;;;0.40;;
83362;SDS011;73275;50.882;5.984;2023-12-20T01:06:29;0.30;;;0.30;;
83362;SDS011;73275;50.882;5.984;2023-12-20T01:08:57;0.40;;;0.40;;
83362;SDS011;73275;50.882;5.984;2023-12-20T01:11:22;0.40;;;0.40;;
83362;SDS011;73275;50.882;5.984;2023-12-20T01:13:47;0.20;;;0.20;;
83362;SDS011;73275;50.882;5.984;2023-12-20T01:16:17;0.35;;;0.35;;
83362;SDS011;73275;50.882;5.984;2023-12-20T01:18:43;0.30;;;0.30;;
83362;SDS011;73275;50.882;5.984;2023-12-20T01:21:19;0.17;;;0.17;;
83362;SDS011;73275;50.882;5.984;2023-12-20T01:23:44;0.40;;;0.40;;
83362;SDS011;73275;50.882;5.984;2023-12-20T01:26:09;0.30;;;0.30;;
83362;SDS011;73275;50.882;5.984;2023-12-20T01:28:35;0.30;;;0.30;;
83362;SDS011;73275;50.882;5.984;2023-12-20T01:31:00;0.13;;;0.13;;
83362;SDS011;73275;50.882;5.984;2023-12-20T01:33:26;0.30;;;0.30;;
83362;SDS011;73275;50.882;5.984;2023-12-20T01:35:51;0.30;;;0.30;;
83362;SDS011;73275;50.882;5.984;2023-12-20T01:38:19;0.30;;;0.30;;
83362;SDS011;73275;50.882;5.984;2023-12-20T01:40:47;0.40;;;0.40;;
83362;SDS011;73275;50.882;5.984;2023-12-20T01:43:13;0.15;;;0.15;;
83362;SDS011;73275;50.882;5.984;2023-12-20T01:45:41;0.55;;;0.55;;
83362;SDS011;73275;50.882;5.984;2023-12-20T01:48:07;0.80;;;0.77;;
83362;SDS011;73275;50.882;5.984;2023-12-20T01:50:33;0.20;;;0.20;;
83362;SDS011;73275;50.882;5.984;2023-12-20T01:53:02;0.20;;;0.20;;
83362;SDS011;73275;50.882;5.984;2023-12-20T01:55:31;0.60;;;0.60;;
83362;SDS011;73275;50.882;5.984;2023-12-20T01:57:58;0.20;;;0.20;;
83362;SDS011;73275;50.882;5.984;2023-12-20T02:00:24;0.20;;;0.20;;
83362;SDS011;73275;50.882;5.984;2023-12-20T02:02:53;0.40;;;0.40;;
83362;SDS011;73275;50.882;5.984;2023-12-20T02:05:20;0.20;;;0.20;;
83362;SDS011;73275;50.882;5.984;2023-12-20T02:07:48;0.65;;;0.65;;
83362;SDS011;73275;50.882;5.984;2023-12-20T02:10:16;0.73;;;0.73;;
83362;SDS011;73275;50.882;5.984;2023-12-20T02:12:42;0.20;;;0.20;;
83362;SDS011;73275;50.882;5.984;2023-12-20T02:15:07;0.20;;;0.20;;
83362;SDS011;73275;50.882;5.984;2023-12-20T02:17:33;0.20;;;0.20;;
83362;SDS011;73275;50.882;5.984;2023-12-20T02:19:59;0.30;;;0.30;;
83362;SDS011;73275;50.882;5.984;2023-12-20T02:22:24;0.10;;;0.10;;
83362;SDS011;73275;50.882;5.984;2023-12-20T02:24:50;0.30;;;0.30;;
83362;SDS011;73275;50.882;5.984;2023-12-20T02:27:16;0.10;;;0.10;;
83362;SDS011;73275;50.882;5.984;2023-12-20T02:29:43;0.20;;;0.20;;
83362;SDS011;73275;50.882;5.984;2023-12-20T02:32:08;0.30;;;0.30;;
83362;SDS011;73275;50.882;5.984;2023-12-20T02:34:34;0.30;;;0.30;;
83362;SDS011;73275;50.882;5.984;2023-12-20T02:36:59;0.20;;;0.20;;
83362;SDS011;73275;50.882;5.984;2023-12-20T02:39:25;0.30;;;0.30;;
83362;SDS011;73275;50.882;5.984;2023-12-20T02:41:50;0.40;;;0.40;;
83362;SDS011;73275;50.882;5.984;2023-12-20T02:44:16;0.43;;;0.43;;
83362;SDS011;73275;50.882;5.984;2023-12-20T02:46:41;0.20;;;0.20;;
83362;SDS011;73275;50.882;5.984;2023-12-20T02:49:07;0.20;;;0.20;;
83362;SDS011;73275;50.882;5.984;2023-12-20T02:51:32;1.60;;;1.30;;
83362;SDS011;73275;50.882;5.984;2023-12-20T02:53:58;0.30;;;0.30;;
83362;SDS011;73275;50.882;5.984;2023-12-20T02:56:23;0.87;;;0.87;;
83362;SDS011;73275;50.882;5.984;2023-12-20T02:58:48;0.27;;;0.27;;
83362;SDS011;73275;50.882;5.984;2023-12-20T03:01:14;0.20;;;0.20;;
83362;SDS011;73275;50.882;5.984;2023-12-20T03:03:39;0.67;;;0.67;;
83362;SDS011;73275;50.882;5.984;2023-12-20T03:06:05;0.20;;;0.20;;
83362;SDS011;73275;50.882;5.984;2023-12-20T03:08:30;0.30;;;0.30;;
83362;SDS011;73275;50.882;5.984;2023-12-20T03:10:56;0.20;;;0.20;;
83362;SDS011;73275;50.882;5.984;2023-12-20T03:13:24;0.20;;;0.20;;
83362;SDS011;73275;50.882;5.984;2023-12-20T03:15:50;0.30;;;0.30;;
83362;SDS011;73275;50.882;5.984;2023-12-20T03:18:15;0.20;;;0.20;;
83362;SDS011;73275;50.882;5.984;2023-12-20T03:20:41;0.23;;;0.23;;
83362;SDS011;73275;50.882;5.984;2023-12-20T03:23:06;0.35;;;0.35;;
83362;SDS011;73275;50.882;5.984;2023-12-20T03:25:32;0.30;;;0.30;;
83362;SDS011;73275;50.882;5.984;2023-12-20T03:27:57;0.20;;;0.20;;
83362;SDS011;73275;50.882;5.984;2023-12-20T03:30:23;0.10;;;0.10;;
83362;SDS011;73275;50.882;5.984;2023-12-20T03:32:48;0.30;;;0.30;;
83362;SDS011;73275;50.882;5.984;2023-12-20T03:35:14;0.20;;;0.20;;
83362;SDS011;73275;50.882;5.984;2023-12-20T03:37:39;0.20;;;0.20;;
83362;SDS011;73275;50.882;5.984;2023-12-20T03:40:05;0.30;;;0.30;;
83362;SDS011;73275;50.882;5.984;2023-12-20T03:42:30;0.20;;;0.20;;
83362;SDS011;73275;50.882;5.984;2023-12-20T03:44:56;0.20;;;0.20;;
83362;SDS011;73275;50.882;5.984;2023-12-20T03:47:21;0.20;;;0.20;;
83362;SDS011;73275;50.882;5.984;2023-12-20T03:49:47;0.30;;;0.30;;
83362;SDS011;73275;50.882;5.984;2023-12-20T03:52:12;0.23;;;0.23;;
83362;SDS011;73275;50.882;5.984;2023-12-20T03:54:38;0.20;;;0.20;;
83362;SDS011;73275;50.882;5.984;2023-12-20T03:57:03;0.20;;;0.20;;
83362;SDS011;73275;50.882;5.984;2023-12-20T03:59:29;0.17;;;0.17;;
83362;SDS011;73275;50.882;5.984;2023-12-20T04:02:00;0.10;;;0.10;;
83362;SDS011;73275;50.882;5.984;2023-12-20T04:04:25;0.20;;;0.20;;
83362;SDS011;73275;50.882;5.984;2023-12-20T04:06:51;0.30;;;0.30;;
83362;SDS011;73275;50.882;5.984;2023-12-20T04:09:16;0.30;;;0.30;;
83362;SDS011;73275;50.882;5.984;2023-12-20T04:11:42;0.30;;;0.30;;
83362;SDS011;73275;50.882;5.984;2023-12-20T04:14:07;0.40;;;0.40;;
83362;SDS011;73275;50.882;5.984;2023-12-20T04:16:33;0.23;;;0.23;;
83362;SDS011;73275;50.882;5.984;2023-12-20T04:18:58;0.30;;;0.30;;
83362;SDS011;73275;50.882;5.984;2023-12-20T04:21:23;0.30;;;0.30;;
83362;SDS011;73275;50.882;5.984;2023-12-20T04:23:49;0.30;;;0.30;;
83362;SDS011;73275;50.882;5.984;2023-12-20T04:26:14;0.30;;;0.30;;
83362;SDS011;73275;50.882;5.984;2023-12-20T04:28:40;0.10;;;0.10;;
83362;SDS011;73275;50.882;5.984;2023-12-20T04:31:05;0.40;;;0.40;;
83362;SDS011;73275;50.882;5.984;2023-12-20T04:33:30;0.30;;;0.30;;
83362;SDS011;73275;50.882;5.984;2023-12-20T04:35:56;0.40;;;0.40;;
83362;SDS011;73275;50.882;5.984;2023-12-20T04:38:22;0.22;;;0.22;;
83362;SDS011;73275;50.882;5.984;2023-12-20T04:40:48;0.20;;;0.20;;
83362;SDS011;73275;50.882;5.984;2023-12-20T04:43:13;0.23;;;0.23;;
83362;SDS011;73275;50.882;5.984;2023-12-20T04:45:41;0.30;;;0.30;;
83362;SDS011;73275;50.882;5.984;2023-12-20T04:48:07;1.27;;;1.17;;
83362;SDS011;73275;50.882;5.984;2023-12-20T04:50:32;0.40;;;0.40;;
83362;SDS011;73275;50.882;5.984;2023-12-20T04:52:58;0.30;;;0.30;;
83362;SDS011;73275;50.882;5.984;2023-12-20T04:55:23;0.30;;;0.30;;
83362;SDS011;73275;50.882;5.984;2023-12-20T04:57:49;0.30;;;0.30;;
83362;SDS011;73275;50.882;5.984;2023-12-20T05:00:14;0.30;;;0.30;;
83362;SDS011;73275;50.882;5.984;2023-12-20T05:02:40;0.20;;;0.20;;
83362;SDS011;73275;50.882;5.984;2023-12-20T05:05:06;0.20;;;0.20;;
83362;SDS011;73275;50.882;5.984;2023-12-20T05:07:31;0.20;;;0.20;;
83362;SDS011;73275;50.882;5.984;2023-12-20T05:09:57;0.40;;;0.40;;
83362;SDS011;73275;50.882;5.984;2023-12-20T05:12:23;0.37;;;0.37;;
83362;SDS011;73275;50.882;5.984;2023-12-20T05:14:48;0.30;;;0.30;;
83362;SDS011;73275;50.882;5.984;2023-12-20T05:17:14;0.50;;;0.50;;
83362;SDS011;73275;50.882;5.984;2023-12-20T05:19:39;0.30;;;0.30;;
83362;SDS011;73275;50.882;5.984;2023-12-20T05:22:04;0.20;;;0.20;;
83362;SDS011;73275;50.882;5.984;2023-12-20T05:24:30;0.40;;;0.40;;
83362;SDS011;73275;50.882;5.984;2023-12-20T05:26:55;0.30;;;0.30;;
83362;SDS011;73275;50.882;5.984;2023-12-20T05:29:20;0.30;;;0.30;;
83362;SDS011;73275;50.882;5.984;2023-12-20T05:31:46;0.30;;;0.30;;
83362;SDS011;73275;50.882;5.984;2023-12-20T05:34:11;0.27;;;0.27;;
83362;SDS011;73275;50.882;5.984;2023-12-20T05:36:37;0.20;;;0.20;;
83362;SDS011;73275;50.882;5.984;2023-12-20T05:39:04;0.30;;;0.30;;
83362;SDS011;73275;50.882;5.984;2023-12-20T05:41:32;0.30;;;0.30;;
83362;SDS011;73275;50.882;5.984;2023-12-20T05:43:57;0.28;;;0.28;;
83362;SDS011;73275;50.882;5.984;2023-12-20T05:46:23;0.30;;;0.30;;
83362;SDS011;73275;50.882;5.984;2023-12-20T05:48:49;0.73;;;0.73;;
83362;SDS011;73275;50.882;5.984;2023-12-20T05:51:14;0.37;;;0.37;;
83362;SDS011;73275;50.882;5.984;2023-12-20T05:53:40;0.20;;;0.20;;
83362;SDS011;73275;50.882;5.984;2023-12-20T05:56:05;0.30;;;0.30;;
83362;SDS011;73275;50.882;5.984;2023-12-20T05:58:32;0.50;;;0.50;;
83362;SDS011;73275;50.882;5.984;2023-12-20T06:00:58;0.20;;;0.20;;
83362;SDS011;73275;50.882;5.984;2023-12-20T06:03:23;0.30;;;0.30;;
83362;SDS011;73275;50.882;5.984;2023-12-20T06:05:48;0.20;;;0.20;;
83362;SDS011;73275;50.882;5.984;2023-12-20T06:08:14;0.97;;;0.50;;
83362;SDS011;73275;50.882;5.984;2023-12-20T06:10:39;0.10;;;0.10;;
83362;SDS011;73275;50.882;5.984;2023-12-20T06:13:05;2.10;;;1.33;;
83362;SDS011;73275;50.882;5.984;2023-12-20T06:15:31;0.20;;;0.20;;
83362;SDS011;73275;50.882;5.984;2023-12-20T06:17:57;0.20;;;0.20;;
83362;SDS011;73275;50.882;5.984;2023-12-20T06:20:22;0.40;;;0.40;;
83362;SDS011;73275;50.882;5.984;2023-12-20T06:22:48;0.30;;;0.30;;
83362;SDS011;73275;50.882;5.984;2023-12-20T06:25:13;0.27;;;0.27;;
83362;SDS011;73275;50.882;5.984;2023-12-20T06:27:39;0.40;;;0.40;;
83362;SDS011;73275;50.882;5.984;2023-12-20T06:30:06;0.80;;;0.80;;
83362;SDS011;73275;50.882;5.984;2023-12-20T06:32:32;0.30;;;0.30;;
83362;SDS011;73275;50.882;5.984;2023-12-20T06:34:59;1.58;;;1.33;;
83362;SDS011;73275;50.882;5.984;2023-12-20T06:37:24;0.30;;;0.30;;
83362;SDS011;73275;50.882;5.984;2023-12-20T06:39:50;0.40;;;0.40;;
83362;SDS011;73275;50.882;5.984;2023-12-20T06:42:15;0.40;;;0.40;;
83362;SDS011;73275;50.882;5.984;2023-12-20T06:44:40;0.20;;;0.20;;
83362;SDS011;73275;50.882;5.984;2023-12-20T06:47:06;0.20;;;0.20;;
83362;SDS011;73275;50.882;5.984;2023-12-20T06:49:32;0.30;;;0.30;;
83362;SDS011;73275;50.882;5.984;2023-12-20T06:51:59;0.30;;;0.30;;
83362;SDS011;73275;50.882;5.984;2023-12-20T06:54:25;0.30;;;0.30;;
83362;SDS011;73275;50.882;5.984;2023-12-20T06:56:50;15.00;;;2.40;;
83362;SDS011;73275;50.882;5.984;2023-12-20T06:59:15;1.77;;;0.83;;
83362;SDS011;73275;50.882;5.984;2023-12-20T07:01:41;0.30;;;0.30;;
83362;SDS011;73275;50.882;5.984;2023-12-20T07:04:06;0.50;;;0.50;;
83362;SDS011;73275;50.882;5.984;2023-12-20T07:06:32;0.30;;;0.30;;
83362;SDS011;73275;50.882;5.984;2023-12-20T07:08:57;0.10;;;0.10;;
83362;SDS011;73275;50.882;5.984;2023-12-20T07:11:22;0.30;;;0.30;;
83362;SDS011;73275;50.882;5.984;2023-12-20T07:13:48;0.47;;;0.47;;
83362;SDS011;73275;50.882;5.984;2023-12-20T07:16:14;2.15;;;0.98;;
83362;SDS011;73275;50.882;5.984;2023-12-20T07:18:40;0.30;;;0.30;;
83362;SDS011;73275;50.882;5.984;2023-12-20T07:21:05;0.37;;;0.37;;
83362;SDS011;73275;50.882;5.984;2023-12-20T07:23:32;0.30;;;0.30;;
83362;SDS011;73275;50.882;5.984;2023-12-20T07:25:58;1.03;;;0.97;;
83362;SDS011;73275;50.882;5.984;2023-12-20T07:28:23;0.73;;;0.73;;
83362;SDS011;73275;50.882;5.984;2023-12-20T07:30:49;0.30;;;0.30;;
83362;SDS011;73275;50.882;5.984;2023-12-20T07:33:15;0.30;;;0.30;;
83362;SDS011;73275;50.882;5.984;2023-12-20T07:35:40;0.20;;;0.20;;
83362;SDS011;73275;50.882;5.984;2023-12-20T07:38:06;0.30;;;0.30;;
83362;SDS011;73275;50.882;5.984;2023-12-20T07:40:31;0.87;;;0.60;;
83362;SDS011;73275;50.882;5.984;2023-12-20T07:42:57;0.30;;;0.30;;
83362;SDS011;73275;50.882;5.984;2023-12-20T07:45:23;0.30;;;0.30;;
83362;SDS011;73275;50.882;5.984;2023-12-20T07:47:48;0.90;;;0.82;;
83362;SDS011;73275;50.882;5.984;2023-12-20T07:50:15;0.20;;;0.20;;
83362;SDS011;73275;50.882;5.984;2023-12-20T07:52:40;0.30;;;0.30;;
83362;SDS011;73275;50.882;5.984;2023-12-20T07:55:06;0.30;;;0.30;;
83362;SDS011;73275;50.882;5.984;2023-12-20T07:57:32;0.38;;;0.38;;
83362;SDS011;73275;50.882;5.984;2023-12-20T07:59:57;0.30;;;0.30;;
83362;SDS011;73275;50.882;5.984;2023-12-20T08:02:22;0.20;;;0.20;;
83362;SDS011;73275;50.882;5.984;2023-12-20T08:04:48;0.30;;;0.30;;
83362;SDS011;73275;50.882;5.984;2023-12-20T08:07:13;0.23;;;0.23;;
83362;SDS011;73275;50.882;5.984;2023-12-20T08:09:39;0.20;;;0.20;;
83362;SDS011;73275;50.882;5.984;2023-12-20T08:12:05;0.30;;;0.30;;
83362;SDS011;73275;50.882;5.984;2023-12-20T08:14:30;0.30;;;0.30;;
83362;SDS011;73275;50.882;5.984;2023-12-20T08:16:59;0.30;;;0.30;;
83362;SDS011;73275;50.882;5.984;2023-12-20T08:19:27;0.40;;;0.40;;
83362;SDS011;73275;50.882;5.984;2023-12-20T08:21:52;0.30;;;0.30;;
83362;SDS011;73275;50.882;5.984;2023-12-20T08:24:17;0.30;;;0.30;;
83362;SDS011;73275;50.882;5.984;2023-12-20T08:26:43;0.30;;;0.30;;
83362;SDS011;73275;50.882;5.984;2023-12-20T08:29:11;0.40;;;0.40;;
83362;SDS011;73275;50.882;5.984;2023-12-20T08:31:38;0.30;;;0.30;;
83362;SDS011;73275;50.882;5.984;2023-12-20T08:34:06;0.20;;;0.20;;
83362;SDS011;73275;50.882;5.984;2023-12-20T08:36:31;0.20;;;0.20;;
83362;SDS011;73275;50.882;5.984;2023-12-20T08:38:59;0.20;;;0.20;;
83362;SDS011;73275;50.882;5.984;2023-12-20T08:41:25;0.20;;;0.20;;
83362;SDS011;73275;50.882;5.984;2023-12-20T08:43:53;0.25;;;0.25;;
83362;SDS011;73275;50.882;5.984;2023-12-20T08:46:19;0.30;;;0.30;;
83362;SDS011;73275;50.882;5.984;2023-12-20T08:48:45;0.30;;;0.30;;
83362;SDS011;73275;50.882;5.984;2023-12-20T08:51:11;0.23;;;0.23;;
83362;SDS011;73275;50.882;5.984;2023-12-20T08:53:38;0.35;;;0.35;;
83362;SDS011;73275;50.882;5.984;2023-12-20T08:56:03;0.30;;;0.30;;
83362;SDS011;73275;50.882;5.984;2023-12-20T08:58:29;0.20;;;0.20;;
83362;SDS011;73275;50.882;5.984;2023-12-20T09:00:54;0.20;;;0.20;;
83362;SDS011;73275;50.882;5.984;2023-12-20T09:03:22;1.95;;;1.85;;
83362;SDS011;73275;50.882;5.984;2023-12-20T09:05:47;0.30;;;0.30;;
83362;SDS011;73275;50.882;5.984;2023-12-20T09:08:13;15.87;;;2.50;;
83362;SDS011;73275;50.882;5.984;2023-12-20T09:10:40;18.90;;;3.15;;
83362;SDS011;73275;50.882;5.984;2023-12-20T09:13:06;14.30;;;2.43;;
83362;SDS011;73275;50.882;5.984;2023-12-20T09:15:33;16.25;;;2.30;;
83362;SDS011;73275;50.882;5.984;2023-12-20T09:18:01;15.97;;;3.13;;
83362;SDS011;73275;50.882;5.984;2023-12-20T09:20:30;10.55;;;2.63;;
83362;SDS011;73275;50.882;5.984;2023-12-20T09:22:56;13.00;;;2.40;;
83362;SDS011;73275;50.882;5.984;2023-12-20T09:25:21;13.83;;;2.73;;
83362;SDS011;73275;50.882;5.984;2023-12-20T09:27:51;13.13;;;2.40;;
83362;SDS011;73275;50.882;5.984;2023-12-20T09:31:12;7.07;;;2.38;;
83362;SDS011;73275;50.882;5.984;2023-12-20T09:33:41;13.20;;;2.47;;
83362;SDS011;73275;50.882;5.984;2023-12-20T09:36:09;16.17;;;2.90;;
83362;SDS011;73275;50.882;5.984;2023-12-20T09:38:44;10.20;;;1.95;;
83362;SDS011;73275;50.882;5.984;2023-12-20T09:41:10;11.43;;;2.15;;
83362;SDS011;73275;50.882;5.984;2023-12-20T09:43:38;15.23;;;2.80;;
83362;SDS011;73275;50.882;5.984;2023-12-20T09:46:09;9.07;;;1.77;;
83362;SDS011;73275;50.882;5.984;2023-12-20T09:48:39;9.30;;;2.25;;
83362;SDS011;73275;50.882;5.984;2023-12-20T09:51:06;15.25;;;1.95;;
83362;SDS011;73275;50.882;5.984;2023-12-20T09:53:33;11.45;;;2.55;;
83362;SDS011;73275;50.882;5.984;2023-12-20T09:56:02;15.73;;;3.53;;
83362;SDS011;73275;50.882;5.984;2023-12-20T09:58:30;8.60;;;1.80;;
83362;SDS011;73275;50.882;5.984;2023-12-20T10:01:08;9.20;;;1.98;;
83362;SDS011;73275;50.882;5.984;2023-12-20T10:03:37;5.57;;;1.70;;
83362;SDS011;73275;50.882;5.984;2023-12-20T10:06:14;15.00;;;2.55;;
83362;SDS011;73275;50.882;5.984;2023-12-20T10:08:44;7.43;;;1.60;;
83362;SDS011;73275;50.882;5.984;2023-12-20T10:11:13;10.10;;;2.35;;
83362;SDS011;73275;50.882;5.984;2023-12-20T10:13:42;13.18;;;2.15;;
83362;SDS011;73275;50.882;5.984;2023-12-20T10:16:13;11.32;;;2.22;;
83362;SDS011;73275;50.882;5.984;2023-12-20T10:18:42;8.50;;;2.38;;
83362;SDS011;73275;50.882;5.984;2023-12-20T10:21:08;14.03;;;2.57;;
83362;SDS011;73275;50.882;5.984;2023-12-20T10:23:36;8.05;;;1.25;;
83362;SDS011;73275;50.882;5.984;2023-12-20T10:26:08;9.05;;;2.88;;
83362;SDS011;73275;50.882;5.984;2023-12-20T10:28:37;8.10;;;1.90;;
83362;SDS011;73275;50.882;5.984;2023-12-20T10:31:08;12.17;;;2.00;;
83362;SDS011;73275;50.882;5.984;2023-12-20T10:33:34;11.40;;;2.30;;
83362;SDS011;73275;50.882;5.984;2023-12-20T10:36:00;29.67;;;3.40;;
83362;SDS011;73275;50.882;5.984;2023-12-20T10:38:25;10.87;;;1.93;;
83362;SDS011;73275;50.882;5.984;2023-12-20T10:43:42;10.65;;;2.15;;
83362;SDS011;73275;50.882;5.984;2023-12-20T10:46:20;17.52;;;1.90;;
83362;SDS011;73275;50.882;5.984;2023-12-20T10:48:46;12.30;;;1.60;;
83362;SDS011;73275;50.882;5.984;2023-12-20T10:51:13;11.13;;;2.07;;
83362;SDS011;73275;50.882;5.984;2023-12-20T10:53:42;10.90;;;1.63;;
83362;SDS011;73275;50.882;5.984;2023-12-20T10:56:08;16.42;;;1.63;;
83362;SDS011;73275;50.882;5.984;2023-12-20T10:58:41;9.65;;;1.85;;
83362;SDS011;73275;50.882;5.984;2023-12-20T11:01:07;8.70;;;2.08;;
83362;SDS011;73275;50.882;5.984;2023-12-20T11:03:34;9.50;;;2.03;;
83362;SDS011;73275;50.882;5.984;2023-12-20T11:06:07;11.98;;;2.60;;
83362;SDS011;73275;50.882;5.984;2023-12-20T11:08:50;12.70;;;2.70;;
83362;SDS011;73275;50.882;5.984;2023-12-20T11:11:26;12.13;;;2.42;;
83362;SDS011;73275;50.882;5.984;2023-12-20T11:14:07;5.25;;;1.80;;
83362;SDS011;73275;50.882;5.984;2023-12-20T11:16:38;9.33;;;2.40;;
83362;SDS011;73275;50.882;5.984;2023-12-20T11:19:06;12.30;;;1.95;;
83362;SDS011;73275;50.882;5.984;2023-12-20T11:21:32;9.23;;;2.17;;
83362;SDS011;73275;50.882;5.984;2023-12-20T11:24:01;8.55;;;1.92;;
83362;SDS011;73275;50.882;5.984;2023-12-20T11:26:28;14.35;;;2.75;;
83362;SDS011;73275;50.882;5.984;2023-12-20T11:29:28;8.82;;;2.03;;
83362;SDS011;73275;50.882;5.984;2023-12-20T11:31:59;11.55;;;2.55;;
83362;SDS011;73275;50.882;5.984;2023-12-20T11:34:31;8.10;;;2.10;;
83362;SDS011;73275;50.882;5.984;2023-12-20T11:40:00;11.60;;;2.38;;
83362;SDS011;73275;50.882;5.984;2023-12-20T11:42:27;11.85;;;3.08;;
83362;SDS011;73275;50.882;5.984;2023-12-20T11:44:53;11.73;;;2.53;;
83362;SDS011;73275;50.882;5.984;2023-12-20T11:47:18;13.93;;;2.73;;
83362;SDS011;73275;50.882;5.984;2023-12-20T11:49:47;13.40;;;2.38;;
83362;SDS011;73275;50.882;5.984;2023-12-20T11:52:16;14.02;;;2.33;;
83362;SDS011;73275;50.882;5.984;2023-12-20T11:54:41;10.43;;;1.90;;
83362;SDS011;73275;50.882;5.984;2023-12-20T11:57:07;12.47;;;2.20;;
83362;SDS011;73275;50.882;5.984;2023-12-20T11:59:32;11.02;;;2.22;;
83362;SDS011;73275;50.882;5.984;2023-12-20T12:01:58;8.30;;;2.00;;
83362;SDS011;73275;50.882;5.984;2023-12-20T12:04:26;12.20;;;2.50;;
83362;SDS011;73275;50.882;5.984;2023-12-20T12:06:52;16.65;;;2.85;;
83362;SDS011;73275;50.882;5.984;2023-12-20T12:09:19;8.90;;;1.73;;
83362;SDS011;73275;50.882;5.984;2023-12-20T12:11:47;10.32;;;2.42;;
83362;SDS011;73275;50.882;5.984;2023-12-20T12:20:20;7.78;;;1.88;;
83362;SDS011;73275;50.882;5.984;2023-12-20T12:22:58;10.95;;;2.83;;
83362;SDS011;73275;50.882;5.984;2023-12-20T12:25:25;7.75;;;1.65;;
83362;SDS011;73275;50.882;5.984;2023-12-20T12:27:51;8.55;;;2.22;;
83362;SDS011;73275;50.882;5.984;2023-12-20T12:30:17;10.93;;;2.07;;
83362;SDS011;73275;50.882;5.984;2023-12-20T12:32:44;9.45;;;2.40;;
83362;SDS011;73275;50.882;5.984;2023-12-20T12:35:14;11.45;;;2.60;;
83362;SDS011;73275;50.882;5.984;2023-12-20T12:37:58;9.10;;;2.72;;
83362;SDS011;73275;50.882;5.984;2023-12-20T12:40:29;11.77;;;2.95;;
83362;SDS011;73275;50.882;5.984;2023-12-20T12:43:00;20.43;;;3.20;;
83362;SDS011;73275;50.882;5.984;2023-12-20T12:45:43;12.38;;;2.92;;
83362;SDS011;73275;50.882;5.984;2023-12-20T12:51:34;13.85;;;2.53;;
83362;SDS011;73275;50.882;5.984;2023-12-20T12:54:12;12.43;;;2.67;;
83362;SDS011;73275;50.882;5.984;2023-12-20T12:56:49;12.73;;;2.97;;
83362;SDS011;73275;50.882;5.984;2023-12-20T12:59:20;13.63;;;3.15;;
83362;SDS011;73275;50.882;5.984;2023-12-20T13:01:57;10.95;;;2.83;;
83362;SDS011;73275;50.882;5.984;2023-12-20T13:04:41;9.23;;;2.28;;
83362;SDS011;73275;50.882;5.984;2023-12-20T13:07:10;10.40;;;2.40;;
83362;SDS011;73275;50.882;5.984;2023-12-20T13:09:39;7.60;;;2.20;;
83362;SDS011;73275;50.882;5.984;2023-12-20T13:12:23;12.30;;;2.90;;
83362;SDS011;73275;50.882;5.984;2023-12-20T13:15:10;9.68;;;3.67;;
83362;SDS011;73275;50.882;5.984;2023-12-20T13:17:38;12.77;;;2.50;;
83362;SDS011;73275;50.882;5.984;2023-12-20T13:20:07;11.35;;;3.25;;
83362;SDS011;73275;50.882;5.984;2023-12-20T13:26:14;5.07;;;1.75;;
83362;SDS011;73275;50.882;5.984;2023-12-20T13:28:51;9.05;;;2.20;;
83362;SDS011;73275;50.882;5.984;2023-12-20T13:32:36;8.55;;;2.33;;
83362;SDS011;73275;50.882;5.984;2023-12-20T13:34:52;10.35;;;2.65;;
83362;SDS011;73275;50.882;5.984;2023-12-20T13:37:21;6.20;;;2.17;;
83362;SDS011;73275;50.882;5.984;2023-12-20T13:39:56;7.90;;;1.90;;
83362;SDS011;73275;50.882;5.984;2023-12-20T13:42:55;12.05;;;2.40;;
83362;SDS011;73275;50.882;5.984;2023-12-20T13:45:46;11.70;;;2.03;;
83362;SDS011;73275;50.882;5.984;2023-12-20T13:48:25;11.40;;;2.65;;
83362;SDS011;73275;50.882;5.984;2023-12-20T13:53:56;18.13;;;2.85;;
83362;SDS011;73275;50.882;5.984;2023-12-20T13:56:48;11.82;;;2.88;;
83362;SDS011;73275;50.882;5.984;2023-12-20T13:59:30;12.95;;;2.15;;
83362;SDS011;73275;50.882;5.984;2023-12-20T14:08:53;7.70;;;2.75;;
83362;SDS011;73275;50.882;5.984;2023-12-20T14:14:56;8.65;;;1.90;;
83362;SDS011;73275;50.882;5.984;2023-12-20T14:17:55;15.30;;;2.30;;
83362;SDS011;73275;50.882;5.984;2023-12-20T14:20:20;13.03;;;2.60;;
83362;SDS011;73275;50.882;5.984;2023-12-20T14:22:46;7.45;;;2.10;;
83362;SDS011;73275;50.882;5.984;2023-12-20T14:25:11;9.43;;;2.10;;
83362;SDS011;73275;50.882;5.984;2023-12-20T14:27:38;14.00;;;3.05;;
83362;SDS011;73275;50.882;5.984;2023-12-20T14:30:04;12.40;;;2.93;;
83362;SDS011;73275;50.882;5.984;2023-12-20T14:32:31;6.50;;;2.28;;
83362;SDS011;73275;50.882;5.984;2023-12-20T14:34:56;13.55;;;3.03;;
83362;SDS011;73275;50.882;5.984;2023-12-20T14:37:22;8.50;;;2.60;;
83362;SDS011;73275;50.882;5.984;2023-12-20T14:39:47;8.50;;;2.47;;
83362;SDS011;73275;50.882;5.984;2023-12-20T14:42:12;14.50;;;3.60;;
83362;SDS011;73275;50.882;5.984;2023-12-20T14:44:39;11.10;;;2.80;;
83362;SDS011;73275;50.882;5.984;2023-12-20T14:47:06;7.95;;;2.58;;
83362;SDS011;73275;50.882;5.984;2023-12-20T14:49:31;7.45;;;2.20;;
83362;SDS011;73275;50.882;5.984;2023-12-20T14:51:57;9.03;;;2.73;;
83362;SDS011;73275;50.882;5.984;2023-12-20T14:54:23;8.80;;;2.00;;
83362;SDS011;73275;50.882;5.984;2023-12-20T14:56:48;11.40;;;3.50;;
83362;SDS011;73275;50.882;5.984;2023-12-20T14:59:14;8.87;;;2.50;;
83362;SDS011;73275;50.882;5.984;2023-12-20T15:01:39;11.50;;;2.10;;
83362;SDS011;73275;50.882;5.984;2023-12-20T15:04:05;8.98;;;3.42;;
83362;SDS011;73275;50.882;5.984;2023-12-20T15:06:31;13.55;;;2.92;;
83362;SDS011;73275;50.882;5.984;2023-12-20T15:08:58;5.38;;;2.20;;
83362;SDS011;73275;50.882;5.984;2023-12-20T15:11:23;12.27;;;3.20;;
83362;SDS011;73275;50.882;5.984;2023-12-20T15:13:49;13.37;;;2.90;;
83362;SDS011;73275;50.882;5.984;2023-12-20T15:16:20;15.30;;;4.28;;
83362;SDS011;73275;50.882;5.984;2023-12-20T15:18:46;10.00;;;2.85;;
83362;SDS011;73275;50.882;5.984;2023-12-20T15:21:11;10.57;;;2.67;;
83362;SDS011;73275;50.882;5.984;2023-12-20T15:23:36;18.80;;;3.47;;
83362;SDS011;73275;50.882;5.984;2023-12-20T15:26:02;9.20;;;1.95;;
83362;SDS011;73275;50.882;5.984;2023-12-20T15:28:29;7.67;;;2.63;;
83362;SDS011;73275;50.882;5.984;2023-12-20T15:30:55;15.88;;;3.17;;
83362;SDS011;73275;50.882;5.984;2023-12-20T15:33:21;7.30;;;2.60;;
83362;SDS011;73275;50.882;5.984;2023-12-20T15:35:47;8.80;;;2.87;;
83362;SDS011;73275;50.882;5.984;2023-12-20T15:38:13;5.37;;;2.00;;
83362;SDS011;73275;50.882;5.984;2023-12-20T15:40:38;13.32;;;3.40;;
83362;SDS011;73275;50.882;5.984;2023-12-20T15:43:03;11.20;;;2.40;;
83362;SDS011;73275;50.882;5.984;2023-12-20T15:45:29;8.87;;;2.50;;
83362;SDS011;73275;50.882;5.984;2023-12-20T15:47:54;13.70;;;2.90;;
83362;SDS011;73275;50.882;5.984;2023-12-20T15:50:19;11.93;;;2.87;;